sensor_id;sensor_type;location;lat;lon;timestamp;temperature;humidity
13591;DHT22;6866;50.778;7.206;2022-11-20T00:01:23;4.60;97.70
13591;DHT22;6866;50.778;7.206;2022-11-20T00:03:51;4.60;97.50
13591;DHT22;6866;50.778;7.206;2022-11-20T00:06:18;4.30;97.00
13591;DHT22;6866;50.778;7.206;2022-11-20T00:08:45;4.40;97.40
13591;DHT22;6866;50.778;7.206;2022-11-20T00:11:15;4.40;97.00
13591;DHT22;6866;50.778;7.206;2022-11-20T00:13:45;4.30;97.40
13591;DHT22;6866;50.778;7.206;2022-11-20T00:16:13;4.30;98.00
13591;DHT22;6866;50.778;7.206;2022-11-20T00:18:38;4.30;98.10
13591;DHT22;6866;50.778;7.206;2022-11-20T00:21:06;4.40;97.90
13591;DHT22;6866;50.778;7.206;2022-11-20T00:23:32;4.30;97.60
13591;DHT22;6866;50.778;7.206;2022-11-20T00:26:03;4.30;97.00
13591;DHT22;6866;50.778;7.206;2022-11-20T00:28:28;4.30;97.90
13591;DHT22;6866;50.778;7.206;2022-11-20T00:31:04;4.30;97.30
13591;DHT22;6866;50.778;7.206;2022-11-20T00:33:30;4.20;97.80
13591;DHT22;6866;50.778;7.206;2022-11-20T00:36:00;4.30;97.80
13591;DHT22;6866;50.778;7.206;2022-11-20T00:38:26;4.40;97.90
13591;DHT22;6866;50.778;7.206;2022-11-20T00:40:56;4.60;97.80
13591;DHT22;6866;50.778;7.206;2022-11-20T00:43:22;4.60;97.90
13591;DHT22;6866;50.778;7.206;2022-11-20T00:45:48;4.70;98.40
13591;DHT22;6866;50.778;7.206;2022-11-20T00:48:13;4.60;97.50
13591;DHT22;6866;50.778;7.206;2022-11-20T00:50:40;4.50;97.50
13591;DHT22;6866;50.778;7.206;2022-11-20T00:53:06;4.30;98.60
13591;DHT22;6866;50.778;7.206;2022-11-20T00:55:31;4.30;98.50
13591;DHT22;6866;50.778;7.206;2022-11-20T00:57:57;4.40;99.40
13591;DHT22;6866;50.778;7.206;2022-11-20T01:00:22;4.40;99.10
13591;DHT22;6866;50.778;7.206;2022-11-20T01:02:48;4.40;98.80
13591;DHT22;6866;50.778;7.206;2022-11-20T01:05:13;4.60;99.00
13591;DHT22;6866;50.778;7.206;2022-11-20T01:07:39;4.50;98.80
13591;DHT22;6866;50.778;7.206;2022-11-20T01:10:05;4.60;98.40
13591;DHT22;6866;50.778;7.206;2022-11-20T01:12:30;4.50;98.90
13591;DHT22;6866;50.778;7.206;2022-11-20T01:14:56;4.50;98.60
13591;DHT22;6866;50.778;7.206;2022-11-20T01:17:21;4.40;98.20
13591;DHT22;6866;50.778;7.206;2022-11-20T01:19:51;4.30;98.80
13591;DHT22;6866;50.778;7.206;2022-11-20T01:22:16;4.30;99.50
13591;DHT22;6866;50.778;7.206;2022-11-20T01:24:42;4.30;99.60
13591;DHT22;6866;50.778;7.206;2022-11-20T01:27:07;4.50;99.20
13591;DHT22;6866;50.778;7.206;2022-11-20T01:29:33;4.30;98.60
13591;DHT22;6866;50.778;7.206;2022-11-20T01:31:58;4.20;99.20
13591;DHT22;6866;50.778;7.206;2022-11-20T01:34:24;4.20;99.50
13591;DHT22;6866;50.778;7.206;2022-11-20T01:36:51;4.20;99.80
13591;DHT22;6866;50.778;7.206;2022-11-20T01:39:19;4.30;99.40
13591;DHT22;6866;50.778;7.206;2022-11-20T01:41:45;4.40;99.40
13591;DHT22;6866;50.778;7.206;2022-11-20T01:47:37;4.50;99.00
13591;DHT22;6866;50.778;7.206;2022-11-20T01:50:25;4.40;99.00
13591;DHT22;6866;50.778;7.206;2022-11-20T01:52:59;4.30;98.70
13591;DHT22;6866;50.778;7.206;2022-11-20T01:55:29;4.40;99.50
13591;DHT22;6866;50.778;7.206;2022-11-20T01:57:56;4.40;99.30
13591;DHT22;6866;50.778;7.206;2022-11-20T02:08:23;4.50;99.90
13591;DHT22;6866;50.778;7.206;2022-11-20T02:10:49;4.50;99.00
13591;DHT22;6866;50.778;7.206;2022-11-20T02:13:15;4.60;99.00
13591;DHT22;6866;50.778;7.206;2022-11-20T02:16:00;4.60;99.20
13591;DHT22;6866;50.778;7.206;2022-11-20T02:18:26;4.50;98.90
13591;DHT22;6866;50.778;7.206;2022-11-20T02:20:58;4.50;99.80
13591;DHT22;6866;50.778;7.206;2022-11-20T02:23:32;4.60;99.60
13591;DHT22;6866;50.778;7.206;2022-11-20T02:26:06;4.70;99.20
13591;DHT22;6866;50.778;7.206;2022-11-20T02:28:33;4.50;99.00
13591;DHT22;6866;50.778;7.206;2022-11-20T02:30:59;4.30;99.60
13591;DHT22;6866;50.778;7.206;2022-11-20T02:33:25;4.30;99.90
13591;DHT22;6866;50.778;7.206;2022-11-20T02:35:51;4.40;99.90
13591;DHT22;6866;50.778;7.206;2022-11-20T02:38:17;4.40;99.90
13591;DHT22;6866;50.778;7.206;2022-11-20T02:40:43;4.30;99.70
13591;DHT22;6866;50.778;7.206;2022-11-20T02:43:09;4.30;99.90
13591;DHT22;6866;50.778;7.206;2022-11-20T02:45:35;4.40;99.90
13591;DHT22;6866;50.778;7.206;2022-11-20T02:48:00;4.50;99.90
13591;DHT22;6866;50.778;7.206;2022-11-20T02:50:26;4.30;99.90
13591;DHT22;6866;50.778;7.206;2022-11-20T02:52:51;4.50;99.90
13591;DHT22;6866;50.778;7.206;2022-11-20T02:55:17;4.50;99.90
13591;DHT22;6866;50.778;7.206;2022-11-20T02:57:43;4.50;99.90
13591;DHT22;6866;50.778;7.206;2022-11-20T03:00:09;4.30;99.90
13591;DHT22;6866;50.778;7.206;2022-11-20T03:02:35;4.20;99.90
13591;DHT22;6866;50.778;7.206;2022-11-20T03:05:00;4.30;99.90
13591;DHT22;6866;50.778;7.206;2022-11-20T03:07:26;4.30;99.90
13591;DHT22;6866;50.778;7.206;2022-11-20T03:09:51;4.20;99.90
13591;DHT22;6866;50.778;7.206;2022-11-20T03:12:17;3.90;99.90
13591;DHT22;6866;50.778;7.206;2022-11-20T03:14:42;3.90;99.90
13591;DHT22;6866;50.778;7.206;2022-11-20T03:17:08;4.00;99.90
13591;DHT22;6866;50.778;7.206;2022-11-20T03:19:34;3.90;99.90
13591;DHT22;6866;50.778;7.206;2022-11-20T03:22:00;4.00;99.90
13591;DHT22;6866;50.778;7.206;2022-11-20T03:24:26;4.20;99.90
13591;DHT22;6866;50.778;7.206;2022-11-20T03:26:51;4.30;99.90
13591;DHT22;6866;50.778;7.206;2022-11-20T03:29:17;4.40;99.90
13591;DHT22;6866;50.778;7.206;2022-11-20T03:31:42;4.40;99.90
13591;DHT22;6866;50.778;7.206;2022-11-20T03:34:09;4.40;99.90
13591;DHT22;6866;50.778;7.206;2022-11-20T03:36:38;4.60;99.90
13591;DHT22;6866;50.778;7.206;2022-11-20T03:39:04;4.60;99.90
13591;DHT22;6866;50.778;7.206;2022-11-20T03:41:31;4.60;99.90
13591;DHT22;6866;50.778;7.206;2022-11-20T03:43:59;4.60;99.90
13591;DHT22;6866;50.778;7.206;2022-11-20T03:46:25;4.70;99.90
13591;DHT22;6866;50.778;7.206;2022-11-20T03:48:51;4.70;99.90
13591;DHT22;6866;50.778;7.206;2022-11-20T03:51:23;4.80;99.90
13591;DHT22;6866;50.778;7.206;2022-11-20T03:53:50;4.70;99.90
13591;DHT22;6866;50.778;7.206;2022-11-20T03:56:18;4.80;99.90
13591;DHT22;6866;50.778;7.206;2022-11-20T03:58:44;4.70;99.90
13591;DHT22;6866;50.778;7.206;2022-11-20T04:01:21;4.70;99.90
13591;DHT22;6866;50.778;7.206;2022-11-20T04:03:47;4.70;99.90
13591;DHT22;6866;50.778;7.206;2022-11-20T04:06:16;4.70;99.90
13591;DHT22;6866;50.778;7.206;2022-11-20T04:08:42;4.70;99.90
13591;DHT22;6866;50.778;7.206;2022-11-20T04:11:19;4.70;99.90
13591;DHT22;6866;50.778;7.206;2022-11-20T04:13:53;4.60;99.90
13591;DHT22;6866;50.778;7.206;2022-11-20T04:16:20;4.60;99.90
13591;DHT22;6866;50.778;7.206;2022-11-20T04:18:46;4.60;99.90
13591;DHT22;6866;50.778;7.206;2022-11-20T04:21:12;4.50;99.90
13591;DHT22;6866;50.778;7.206;2022-11-20T04:23:38;4.50;99.90
13591;DHT22;6866;50.778;7.206;2022-11-20T04:26:04;4.60;99.90
13591;DHT22;6866;50.778;7.206;2022-11-20T04:28:30;4.60;99.90
13591;DHT22;6866;50.778;7.206;2022-11-20T04:31:07;4.50;99.90
13591;DHT22;6866;50.778;7.206;2022-11-20T04:33:34;4.50;99.90
13591;DHT22;6866;50.778;7.206;2022-11-20T04:36:21;4.40;99.90
13591;DHT22;6866;50.778;7.206;2022-11-20T04:38:51;4.60;99.90
13591;DHT22;6866;50.778;7.206;2022-11-20T04:41:20;4.50;99.90
13591;DHT22;6866;50.778;7.206;2022-11-20T04:43:47;4.50;99.90
13591;DHT22;6866;50.778;7.206;2022-11-20T04:46:14;4.50;99.90
13591;DHT22;6866;50.778;7.206;2022-11-20T04:48:39;4.40;99.90
13591;DHT22;6866;50.778;7.206;2022-11-20T04:51:05;4.40;99.90
13591;DHT22;6866;50.778;7.206;2022-11-20T04:53:30;4.50;99.90
13591;DHT22;6866;50.778;7.206;2022-11-20T04:56:04;4.60;99.90
13591;DHT22;6866;50.778;7.206;2022-11-20T04:58:31;4.60;99.90
13591;DHT22;6866;50.778;7.206;2022-11-20T05:01:20;4.40;99.90
13591;DHT22;6866;50.778;7.206;2022-11-20T05:03:45;4.50;99.90
13591;DHT22;6866;50.778;7.206;2022-11-20T05:06:17;4.60;99.90
13591;DHT22;6866;50.778;7.206;2022-11-20T05:08:43;4.70;99.90
13591;DHT22;6866;50.778;7.206;2022-11-20T05:11:18;4.70;99.90
13591;DHT22;6866;50.778;7.206;2022-11-20T05:13:44;4.80;99.90
13591;DHT22;6866;50.778;7.206;2022-11-20T05:16:12;4.70;99.90
13591;DHT22;6866;50.778;7.206;2022-11-20T05:18:38;4.70;99.90
13591;DHT22;6866;50.778;7.206;2022-11-20T05:21:05;4.80;99.90
13591;DHT22;6866;50.778;7.206;2022-11-20T05:23:32;4.90;99.90
13591;DHT22;6866;50.778;7.206;2022-11-20T05:25:58;4.80;99.90
13591;DHT22;6866;50.778;7.206;2022-11-20T05:28:24;4.80;99.90
13591;DHT22;6866;50.778;7.206;2022-11-20T05:30:50;4.80;99.90
13591;DHT22;6866;50.778;7.206;2022-11-20T05:33:16;4.70;99.90
13591;DHT22;6866;50.778;7.206;2022-11-20T05:35:42;4.70;99.90
13591;DHT22;6866;50.778;7.206;2022-11-20T05:38:09;4.60;99.90
13591;DHT22;6866;50.778;7.206;2022-11-20T05:40:34;4.70;99.90
13591;DHT22;6866;50.778;7.206;2022-11-20T05:43:00;4.70;99.90
13591;DHT22;6866;50.778;7.206;2022-11-20T05:45:26;4.70;99.90
13591;DHT22;6866;50.778;7.206;2022-11-20T05:47:52;4.60;99.90
13591;DHT22;6866;50.778;7.206;2022-11-20T05:50:17;4.60;99.90
13591;DHT22;6866;50.778;7.206;2022-11-20T05:52:43;4.70;99.90
13591;DHT22;6866;50.778;7.206;2022-11-20T05:55:09;4.60;99.90
13591;DHT22;6866;50.778;7.206;2022-11-20T05:57:35;4.60;99.90
13591;DHT22;6866;50.778;7.206;2022-11-20T06:00:01;4.60;99.90
13591;DHT22;6866;50.778;7.206;2022-11-20T06:02:27;4.60;99.90
13591;DHT22;6866;50.778;7.206;2022-11-20T06:04:52;4.60;99.90
13591;DHT22;6866;50.778;7.206;2022-11-20T06:07:18;4.50;99.90
13591;DHT22;6866;50.778;7.206;2022-11-20T06:09:43;4.60;99.90
13591;DHT22;6866;50.778;7.206;2022-11-20T06:12:09;4.60;99.90
13591;DHT22;6866;50.778;7.206;2022-11-20T06:14:34;4.70;99.90
13591;DHT22;6866;50.778;7.206;2022-11-20T06:17:00;4.80;99.90
13591;DHT22;6866;50.778;7.206;2022-11-20T06:19:26;4.80;99.90
13591;DHT22;6866;50.778;7.206;2022-11-20T06:21:51;4.80;99.90
13591;DHT22;6866;50.778;7.206;2022-11-20T06:24:17;4.70;99.90
13591;DHT22;6866;50.778;7.206;2022-11-20T06:26:43;4.80;99.90
13591;DHT22;6866;50.778;7.206;2022-11-20T06:29:09;4.70;99.90
13591;DHT22;6866;50.778;7.206;2022-11-20T06:31:34;4.80;99.90
13591;DHT22;6866;50.778;7.206;2022-11-20T06:34:06;4.70;99.90
13591;DHT22;6866;50.778;7.206;2022-11-20T06:36:32;4.80;99.90
13591;DHT22;6866;50.778;7.206;2022-11-20T06:38:59;4.80;99.90
13591;DHT22;6866;50.778;7.206;2022-11-20T06:41:25;4.70;99.90
13591;DHT22;6866;50.778;7.206;2022-11-20T06:43:51;4.60;99.90
13591;DHT22;6866;50.778;7.206;2022-11-20T06:46:18;4.60;99.90
13591;DHT22;6866;50.778;7.206;2022-11-20T06:48:44;4.60;99.90
13591;DHT22;6866;50.778;7.206;2022-11-20T06:51:10;4.60;99.90
13591;DHT22;6866;50.778;7.206;2022-11-20T06:53:36;4.70;99.90
13591;DHT22;6866;50.778;7.206;2022-11-20T06:56:03;4.70;99.90
13591;DHT22;6866;50.778;7.206;2022-11-20T06:58:30;4.70;99.90
13591;DHT22;6866;50.778;7.206;2022-11-20T07:01:05;4.80;99.90
13591;DHT22;6866;50.778;7.206;2022-11-20T07:03:31;4.90;99.90
13591;DHT22;6866;50.778;7.206;2022-11-20T07:05:57;4.90;99.90
13591;DHT22;6866;50.778;7.206;2022-11-20T07:08:24;4.90;99.90
13591;DHT22;6866;50.778;7.206;2022-11-20T07:10:49;5.00;99.90
13591;DHT22;6866;50.778;7.206;2022-11-20T07:13:15;4.80;99.90
13591;DHT22;6866;50.778;7.206;2022-11-20T07:15:41;4.80;99.90
13591;DHT22;6866;50.778;7.206;2022-11-20T07:18:06;4.70;99.90
13591;DHT22;6866;50.778;7.206;2022-11-20T07:20:32;4.70;99.90
13591;DHT22;6866;50.778;7.206;2022-11-20T07:22:58;4.80;99.90
13591;DHT22;6866;50.778;7.206;2022-11-20T07:25:27;4.80;99.90
13591;DHT22;6866;50.778;7.206;2022-11-20T07:27:56;4.90;99.90
13591;DHT22;6866;50.778;7.206;2022-11-20T07:30:22;4.80;99.90
13591;DHT22;6866;50.778;7.206;2022-11-20T07:32:51;4.90;99.90
13591;DHT22;6866;50.778;7.206;2022-11-20T07:35:16;4.90;99.90
13591;DHT22;6866;50.778;7.206;2022-11-20T07:37:42;5.00;99.90
13591;DHT22;6866;50.778;7.206;2022-11-20T07:40:08;4.90;99.90
13591;DHT22;6866;50.778;7.206;2022-11-20T07:42:33;5.00;99.90
13591;DHT22;6866;50.778;7.206;2022-11-20T07:44:59;4.90;99.90
13591;DHT22;6866;50.778;7.206;2022-11-20T07:47:24;5.00;99.90
13591;DHT22;6866;50.778;7.206;2022-11-20T07:49:50;5.10;99.90
13591;DHT22;6866;50.778;7.206;2022-11-20T07:52:15;5.20;99.90
13591;DHT22;6866;50.778;7.206;2022-11-20T07:54:41;5.00;99.90
13591;DHT22;6866;50.778;7.206;2022-11-20T07:57:06;5.00;99.90
13591;DHT22;6866;50.778;7.206;2022-11-20T07:59:32;5.00;99.90
13591;DHT22;6866;50.778;7.206;2022-11-20T08:01:57;5.00;99.90
13591;DHT22;6866;50.778;7.206;2022-11-20T08:04:23;5.00;99.90
13591;DHT22;6866;50.778;7.206;2022-11-20T08:06:49;5.00;99.90
13591;DHT22;6866;50.778;7.206;2022-11-20T08:09:15;4.80;99.90
13591;DHT22;6866;50.778;7.206;2022-11-20T08:11:40;5.10;99.90
13591;DHT22;6866;50.778;7.206;2022-11-20T08:14:35;5.20;99.90
13591;DHT22;6866;50.778;7.206;2022-11-20T08:17:00;5.20;99.90
13591;DHT22;6866;50.778;7.206;2022-11-20T08:19:26;5.20;99.90
13591;DHT22;6866;50.778;7.206;2022-11-20T08:21:51;5.30;99.90
13591;DHT22;6866;50.778;7.206;2022-11-20T08:24:17;5.30;99.90
13591;DHT22;6866;50.778;7.206;2022-11-20T08:26:42;5.30;99.90
13591;DHT22;6866;50.778;7.206;2022-11-20T08:29:08;5.30;99.90
13591;DHT22;6866;50.778;7.206;2022-11-20T08:31:34;5.30;99.90
13591;DHT22;6866;50.778;7.206;2022-11-20T08:33:59;5.40;99.90
13591;DHT22;6866;50.778;7.206;2022-11-20T08:36:25;5.40;99.90
13591;DHT22;6866;50.778;7.206;2022-11-20T08:38:52;5.30;99.90
13591;DHT22;6866;50.778;7.206;2022-11-20T08:41:18;5.20;99.90
13591;DHT22;6866;50.778;7.206;2022-11-20T08:44:02;5.40;99.90
13591;DHT22;6866;50.778;7.206;2022-11-20T08:46:36;5.30;99.90
13591;DHT22;6866;50.778;7.206;2022-11-20T08:49:03;5.50;99.90
13591;DHT22;6866;50.778;7.206;2022-11-20T08:51:29;5.60;99.90
13591;DHT22;6866;50.778;7.206;2022-11-20T08:53:55;5.60;99.90
13591;DHT22;6866;50.778;7.206;2022-11-20T08:56:20;5.60;99.90
13591;DHT22;6866;50.778;7.206;2022-11-20T08:58:46;5.60;99.90
13591;DHT22;6866;50.778;7.206;2022-11-20T09:01:12;5.60;99.90
13591;DHT22;6866;50.778;7.206;2022-11-20T09:03:37;5.60;99.90
13591;DHT22;6866;50.778;7.206;2022-11-20T09:06:05;5.80;99.90
13591;DHT22;6866;50.778;7.206;2022-11-20T09:08:32;5.70;99.90
13591;DHT22;6866;50.778;7.206;2022-11-20T09:10:58;5.90;99.90
13591;DHT22;6866;50.778;7.206;2022-11-20T09:13:26;6.10;99.90
13591;DHT22;6866;50.778;7.206;2022-11-20T09:16:04;6.20;99.90
13591;DHT22;6866;50.778;7.206;2022-11-20T09:18:32;6.20;99.90
13591;DHT22;6866;50.778;7.206;2022-11-20T09:21:00;6.00;99.90
13591;DHT22;6866;50.778;7.206;2022-11-20T09:23:26;6.00;99.90
13591;DHT22;6866;50.778;7.206;2022-11-20T09:25:52;6.00;99.90
13591;DHT22;6866;50.778;7.206;2022-11-20T09:28:18;6.10;99.90
13591;DHT22;6866;50.778;7.206;2022-11-20T09:30:44;6.10;99.70
13591;DHT22;6866;50.778;7.206;2022-11-20T09:33:10;6.00;99.90
13591;DHT22;6866;50.778;7.206;2022-11-20T09:35:35;6.00;99.90
13591;DHT22;6866;50.778;7.206;2022-11-20T09:38:06;6.00;99.90
13591;DHT22;6866;50.778;7.206;2022-11-20T09:40:32;6.10;99.90
13591;DHT22;6866;50.778;7.206;2022-11-20T09:43:10;6.20;99.70
13591;DHT22;6866;50.778;7.206;2022-11-20T09:45:49;6.20;99.90
13591;DHT22;6866;50.778;7.206;2022-11-20T09:51:28;6.00;98.70
13591;DHT22;6866;50.778;7.206;2022-11-20T09:56:43;6.20;99.40
13591;DHT22;6866;50.778;7.206;2022-11-20T09:59:37;6.20;99.00
13591;DHT22;6866;50.778;7.206;2022-11-20T10:02:55;6.20;98.90
13591;DHT22;6866;50.778;7.206;2022-11-20T10:05:10;6.10;99.50
13591;DHT22;6866;50.778;7.206;2022-11-20T10:10:33;6.20;99.20
13591;DHT22;6866;50.778;7.206;2022-11-20T10:16:08;6.30;99.90
13591;DHT22;6866;50.778;7.206;2022-11-20T10:27:08;6.30;99.70
13591;DHT22;6866;50.778;7.206;2022-11-20T10:29:38;6.30;99.90
13591;DHT22;6866;50.778;7.206;2022-11-20T10:37:53;6.80;99.20
13591;DHT22;6866;50.778;7.206;2022-11-20T10:40:29;6.80;99.10
13591;DHT22;6866;50.778;7.206;2022-11-20T10:43:07;6.70;98.90
13591;DHT22;6866;50.778;7.206;2022-11-20T10:45:56;6.40;99.80
13591;DHT22;6866;50.778;7.206;2022-11-20T10:48:26;6.50;99.90
13591;DHT22;6866;50.778;7.206;2022-11-20T10:51:13;6.40;99.90
13591;DHT22;6866;50.778;7.206;2022-11-20T10:56:17;6.50;99.90
13591;DHT22;6866;50.778;7.206;2022-11-20T10:59:19;6.50;99.90
13591;DHT22;6866;50.778;7.206;2022-11-20T11:01:46;6.70;99.90
13591;DHT22;6866;50.778;7.206;2022-11-20T11:07:23;6.40;99.90
13591;DHT22;6866;50.778;7.206;2022-11-20T11:09:55;6.40;99.90
13591;DHT22;6866;50.778;7.206;2022-11-20T11:12:24;6.40;99.90
13591;DHT22;6866;50.778;7.206;2022-11-20T11:14:51;6.50;99.90
13591;DHT22;6866;50.778;7.206;2022-11-20T11:17:23;6.50;99.90
13591;DHT22;6866;50.778;7.206;2022-11-20T11:22:46;6.50;99.90
13591;DHT22;6866;50.778;7.206;2022-11-20T11:25:31;6.90;99.90
13591;DHT22;6866;50.778;7.206;2022-11-20T11:28:20;6.70;99.70
13591;DHT22;6866;50.778;7.206;2022-11-20T11:30:46;6.80;99.90
13591;DHT22;6866;50.778;7.206;2022-11-20T11:38:42;7.10;99.90
13591;DHT22;6866;50.778;7.206;2022-11-20T11:41:15;7.00;99.60
13591;DHT22;6866;50.778;7.206;2022-11-20T11:43:53;6.90;98.90
13591;DHT22;6866;50.778;7.206;2022-11-20T11:46:39;6.90;99.90
13591;DHT22;6866;50.778;7.206;2022-11-20T11:52:00;6.90;99.90
13591;DHT22;6866;50.778;7.206;2022-11-20T11:57:01;7.00;99.90
13591;DHT22;6866;50.778;7.206;2022-11-20T11:59:54;7.00;99.80
13591;DHT22;6866;50.778;7.206;2022-11-20T12:07:51;6.80;99.90
13591;DHT22;6866;50.778;7.206;2022-11-20T12:10:48;6.80;99.90
13591;DHT22;6866;50.778;7.206;2022-11-20T12:14:14;6.80;99.90
13591;DHT22;6866;50.778;7.206;2022-11-20T12:16:11;6.90;99.90
13591;DHT22;6866;50.778;7.206;2022-11-20T12:18:38;7.10;99.90
13591;DHT22;6866;50.778;7.206;2022-11-20T12:24:05;7.00;99.90
13591;DHT22;6866;50.778;7.206;2022-11-20T12:26:54;7.00;99.90
13591;DHT22;6866;50.778;7.206;2022-11-20T12:29:56;6.90;99.90
13591;DHT22;6866;50.778;7.206;2022-11-20T12:43:28;7.30;99.90
13591;DHT22;6866;50.778;7.206;2022-11-20T12:46:28;7.30;99.90
13591;DHT22;6866;50.778;7.206;2022-11-20T12:52:00;7.20;99.90
13591;DHT22;6866;50.778;7.206;2022-11-20T12:57:31;7.20;99.90
13591;DHT22;6866;50.778;7.206;2022-11-20T13:00:14;7.10;99.90
13591;DHT22;6866;50.778;7.206;2022-11-20T13:03:00;7.10;99.90
13591;DHT22;6866;50.778;7.206;2022-11-20T13:08:20;7.40;99.90
13591;DHT22;6866;50.778;7.206;2022-11-20T13:14:18;7.30;99.90
13591;DHT22;6866;50.778;7.206;2022-11-20T13:19:20;7.30;99.90
13591;DHT22;6866;50.778;7.206;2022-11-20T13:21:48;7.30;99.90
13591;DHT22;6866;50.778;7.206;2022-11-20T13:29:31;7.30;99.90
13591;DHT22;6866;50.778;7.206;2022-11-20T13:32:14;7.30;99.90
13591;DHT22;6866;50.778;7.206;2022-11-20T13:34:52;7.30;99.90
13591;DHT22;6866;50.778;7.206;2022-11-20T13:37:32;7.30;99.90
13591;DHT22;6866;50.778;7.206;2022-11-20T13:42:37;7.20;99.90
13591;DHT22;6866;50.778;7.206;2022-11-20T13:45:26;7.20;99.90
13591;DHT22;6866;50.778;7.206;2022-11-20T13:47:54;7.20;99.90
13591;DHT22;6866;50.778;7.206;2022-11-20T13:50:40;7.30;99.90
13591;DHT22;6866;50.778;7.206;2022-11-20T13:53:47;7.30;99.90
13591;DHT22;6866;50.778;7.206;2022-11-20T14:01:33;7.50;99.90
13591;DHT22;6866;50.778;7.206;2022-11-20T14:04:06;7.40;99.90
13591;DHT22;6866;50.778;7.206;2022-11-20T14:06:44;7.50;99.90
13591;DHT22;6866;50.778;7.206;2022-11-20T14:09:28;7.50;99.90
13591;DHT22;6866;50.778;7.206;2022-11-20T14:11:54;7.60;99.90
13591;DHT22;6866;50.778;7.206;2022-11-20T14:14:22;7.50;99.90
13591;DHT22;6866;50.778;7.206;2022-11-20T14:16:51;7.50;99.90
13591;DHT22;6866;50.778;7.206;2022-11-20T14:21:47;7.40;99.90
13591;DHT22;6866;50.778;7.206;2022-11-20T14:24:18;7.30;99.90
13591;DHT22;6866;50.778;7.206;2022-11-20T14:26:45;7.30;99.90
13591;DHT22;6866;50.778;7.206;2022-11-20T14:29:16;7.30;99.90
13591;DHT22;6866;50.778;7.206;2022-11-20T14:31:42;7.40;99.90
13591;DHT22;6866;50.778;7.206;2022-11-20T14:34:28;7.40;99.90
13591;DHT22;6866;50.778;7.206;2022-11-20T14:37:04;7.50;99.90
13591;DHT22;6866;50.778;7.206;2022-11-20T14:39:33;7.40;99.90
13591;DHT22;6866;50.778;7.206;2022-11-20T14:41:59;7.30;99.90
13591;DHT22;6866;50.778;7.206;2022-11-20T14:44:30;7.40;99.90
13591;DHT22;6866;50.778;7.206;2022-11-20T14:46:57;7.50;99.90
13591;DHT22;6866;50.778;7.206;2022-11-20T14:49:24;7.50;99.90
13591;DHT22;6866;50.778;7.206;2022-11-20T14:52:00;7.50;99.90
13591;DHT22;6866;50.778;7.206;2022-11-20T14:54:26;7.50;99.90
13591;DHT22;6866;50.778;7.206;2022-11-20T14:56:57;7.60;99.90
13591;DHT22;6866;50.778;7.206;2022-11-20T14:59:28;7.60;99.90
13591;DHT22;6866;50.778;7.206;2022-11-20T15:02:00;7.60;99.90
13591;DHT22;6866;50.778;7.206;2022-11-20T15:04:26;7.60;99.90
13591;DHT22;6866;50.778;7.206;2022-11-20T15:06:54;7.70;99.90
13591;DHT22;6866;50.778;7.206;2022-11-20T15:09:20;7.70;99.90
13591;DHT22;6866;50.778;7.206;2022-11-20T15:11:57;7.60;99.90
13591;DHT22;6866;50.778;7.206;2022-11-20T15:14:24;7.70;99.90
13591;DHT22;6866;50.778;7.206;2022-11-20T15:16:50;7.60;99.90
13591;DHT22;6866;50.778;7.206;2022-11-20T15:19:21;7.70;99.90
13591;DHT22;6866;50.778;7.206;2022-11-20T15:21:47;7.60;99.90
13591;DHT22;6866;50.778;7.206;2022-11-20T15:24:13;7.50;99.90
13591;DHT22;6866;50.778;7.206;2022-11-20T15:26:38;7.60;99.90
13591;DHT22;6866;50.778;7.206;2022-11-20T15:29:11;7.70;99.90
13591;DHT22;6866;50.778;7.206;2022-11-20T15:31:38;7.60;99.90
13591;DHT22;6866;50.778;7.206;2022-11-20T15:34:11;7.70;99.90
13591;DHT22;6866;50.778;7.206;2022-11-20T15:36:38;7.70;99.90
13591;DHT22;6866;50.778;7.206;2022-11-20T15:39:03;7.70;99.90
13591;DHT22;6866;50.778;7.206;2022-11-20T15:41:29;7.80;99.90
13591;DHT22;6866;50.778;7.206;2022-11-20T15:43:55;7.80;99.90
13591;DHT22;6866;50.778;7.206;2022-11-20T15:46:26;7.80;99.90
13591;DHT22;6866;50.778;7.206;2022-11-20T15:48:55;7.80;99.90
13591;DHT22;6866;50.778;7.206;2022-11-20T15:51:36;7.70;99.90
13591;DHT22;6866;50.778;7.206;2022-11-20T15:54:10;7.70;99.90
13591;DHT22;6866;50.778;7.206;2022-11-20T15:56:36;7.80;99.90
13591;DHT22;6866;50.778;7.206;2022-11-20T15:59:02;7.70;99.90
13591;DHT22;6866;50.778;7.206;2022-11-20T16:01:28;7.70;99.90
13591;DHT22;6866;50.778;7.206;2022-11-20T16:03:53;7.70;99.90
13591;DHT22;6866;50.778;7.206;2022-11-20T16:06:19;7.70;99.90
13591;DHT22;6866;50.778;7.206;2022-11-20T16:08:44;7.60;99.90
13591;DHT22;6866;50.778;7.206;2022-11-20T16:11:13;7.60;99.90
13591;DHT22;6866;50.778;7.206;2022-11-20T16:13:39;7.60;99.90
13591;DHT22;6866;50.778;7.206;2022-11-20T16:16:26;7.60;99.90
13591;DHT22;6866;50.778;7.206;2022-11-20T16:18:54;7.60;99.90
13591;DHT22;6866;50.778;7.206;2022-11-20T16:21:19;7.50;99.90
13591;DHT22;6866;50.778;7.206;2022-11-20T16:23:45;7.50;99.90
13591;DHT22;6866;50.778;7.206;2022-11-20T16:26:13;7.50;99.90
13591;DHT22;6866;50.778;7.206;2022-11-20T16:28:39;7.50;99.90
13591;DHT22;6866;50.778;7.206;2022-11-20T16:31:12;7.50;99.90
13591;DHT22;6866;50.778;7.206;2022-11-20T16:33:39;7.40;99.90
13591;DHT22;6866;50.778;7.206;2022-11-20T16:36:13;7.30;99.90
13591;DHT22;6866;50.778;7.206;2022-11-20T16:38:39;7.30;99.90
13591;DHT22;6866;50.778;7.206;2022-11-20T16:41:06;7.30;99.90
13591;DHT22;6866;50.778;7.206;2022-11-20T16:43:31;7.30;99.90
13591;DHT22;6866;50.778;7.206;2022-11-20T16:45:57;7.20;99.90
13591;DHT22;6866;50.778;7.206;2022-11-20T16:48:23;7.30;99.90
13591;DHT22;6866;50.778;7.206;2022-11-20T16:50:51;7.20;99.90
13591;DHT22;6866;50.778;7.206;2022-11-20T16:53:18;7.30;99.90
13591;DHT22;6866;50.778;7.206;2022-11-20T16:55:44;7.40;99.90
13591;DHT22;6866;50.778;7.206;2022-11-20T16:58:09;7.30;99.90
13591;DHT22;6866;50.778;7.206;2022-11-20T17:00:36;7.40;99.90
13591;DHT22;6866;50.778;7.206;2022-11-20T17:03:03;7.30;99.90
13591;DHT22;6866;50.778;7.206;2022-11-20T17:05:29;7.40;99.90
13591;DHT22;6866;50.778;7.206;2022-11-20T17:07:55;7.40;99.90
13591;DHT22;6866;50.778;7.206;2022-11-20T17:10:20;7.40;99.90
13591;DHT22;6866;50.778;7.206;2022-11-20T17:12:46;7.40;99.90
13591;DHT22;6866;50.778;7.206;2022-11-20T17:15:11;7.30;99.90
13591;DHT22;6866;50.778;7.206;2022-11-20T17:17:37;7.30;99.90
13591;DHT22;6866;50.778;7.206;2022-11-20T17:20:04;7.20;99.90
13591;DHT22;6866;50.778;7.206;2022-11-20T17:22:30;7.20;99.90
13591;DHT22;6866;50.778;7.206;2022-11-20T17:24:56;7.10;99.90
13591;DHT22;6866;50.778;7.206;2022-11-20T17:27:22;7.20;99.90
13591;DHT22;6866;50.778;7.206;2022-11-20T17:29:47;7.20;99.90
13591;DHT22;6866;50.778;7.206;2022-11-20T17:32:13;7.30;99.90
13591;DHT22;6866;50.778;7.206;2022-11-20T17:34:39;7.30;99.90
13591;DHT22;6866;50.778;7.206;2022-11-20T17:37:05;7.30;99.90
13591;DHT22;6866;50.778;7.206;2022-11-20T17:39:31;7.30;99.90
13591;DHT22;6866;50.778;7.206;2022-11-20T17:41:56;7.30;99.90
13591;DHT22;6866;50.778;7.206;2022-11-20T17:44:40;7.20;99.90
13591;DHT22;6866;50.778;7.206;2022-11-20T17:47:07;7.20;99.90
13591;DHT22;6866;50.778;7.206;2022-11-20T17:49:32;7.20;99.90
13591;DHT22;6866;50.778;7.206;2022-11-20T17:51:58;7.30;99.90
13591;DHT22;6866;50.778;7.206;2022-11-20T17:54:24;7.30;99.90
13591;DHT22;6866;50.778;7.206;2022-11-20T17:56:49;7.30;99.90
13591;DHT22;6866;50.778;7.206;2022-11-20T17:59:33;7.30;99.90
13591;DHT22;6866;50.778;7.206;2022-11-20T18:01:59;7.30;99.90